Time;durP1;ratioP1;P1;durP2;ratioP2;P2;SDS_P1;SDS_P2;PMS_P1;PMS_P2;Temp;Humidity;BMP_temperature;BMP_pressure;BME280_temperature;BME280_humidity;BME280_pressure;Samples;Min_cycle;Max_cycle;Signal;HPM_P1;HPM_P2
2023/03/04 00:02:20;;;;;;;13.25;6.88;;;15.50;51.00;;;;;;4979867;28;45231;-71
2023/03/04 00:04:47;;;;;;;10.77;6.00;;;15.40;51.10;;;;;;4986553;28;45446;-70
2023/03/04 00:07:15;;;;;;;13.60;6.47;;;15.50;51.10;;;;;;4985595;28;45442;-71
2023/03/04 00:09:42;;;;;;;12.65;6.03;;;15.50;51.20;;;;;;4987068;28;45216;-71
2023/03/04 00:12:09;;;;;;;10.77;5.70;;;15.50;51.30;;;;;;4989113;28;45323;-71
2023/03/04 00:14:36;;;;;;;9.25;5.25;;;15.40;51.20;;;;;;4986971;28;46256;-71
2023/03/04 00:17:05;;;;;;;10.25;5.22;;;15.50;51.20;;;;;;4986572;28;45231;-71
2023/03/04 00:19:33;;;;;;;8.73;4.88;;;15.40;51.10;;;;;;4992759;28;45270;-71
2023/03/04 00:22:00;;;;;;;7.97;4.70;;;15.50;51.10;;;;;;4987441;28;45450;-70
2023/03/04 00:24:27;;;;;;;9.23;4.88;;;15.40;50.60;;;;;;4987083;28;46591;-71
2023/03/04 00:26:54;;;;;;;9.43;4.70;;;15.40;50.80;;;;;;4993169;28;45308;-70
2023/03/04 00:29:21;;;;;;;7.85;4.18;;;15.40;51.10;;;;;;4980798;28;45426;-71
2023/03/04 00:31:48;;;;;;;6.93;4.00;;;15.50;51.10;;;;;;4974676;28;45360;-71
2023/03/04 00:34:16;;;;;;;9.63;3.85;;;15.50;50.90;;;;;;4975678;28;46463;-70
2023/03/04 00:36:43;;;;;;;5.78;3.70;;;15.50;50.90;;;;;;4996994;28;45434;-71
2023/03/04 00:39:10;;;;;;;8.80;4.25;;;15.50;51.00;;;;;;4983927;28;45413;-71
2023/03/04 00:41:37;;;;;;;6.72;3.92;;;15.50;50.90;;;;;;4978019;28;45621;-71
2023/03/04 00:44:05;;;;;;;6.78;3.75;;;15.50;52.10;;;;;;4983995;28;47539;-71
2023/03/04 00:46:32;;;;;;;6.47;3.75;;;15.60;51.10;;;;;;4976481;28;45244;-71
2023/03/04 00:48:59;;;;;;;7.93;3.75;;;15.50;50.80;;;;;;4974354;28;45330;-71
2023/03/04 00:51:27;;;;;;;7.65;3.45;;;15.50;50.70;;;;;;4983082;28;45283;-70
2023/03/04 00:53:54;;;;;;;6.88;3.85;;;15.60;50.80;;;;;;4974632;28;47038;-71
2023/03/04 00:56:21;;;;;;;7.82;3.70;;;15.50;50.70;;;;;;4976689;28;45315;-71
2023/03/04 00:58:47;;;;;;;9.68;3.75;;;15.50;50.70;;;;;;4982583;28;45421;-70
2023/03/04 01:01:14;;;;;;;7.70;3.85;;;15.50;50.90;;;;;;4978815;28;45375;-71
2023/03/04 01:03:41;;;;;;;5.20;3.20;;;15.50;51.00;;;;;;4979681;28;48005;-71
2023/03/04 01:06:08;;;;;;;5.90;3.47;;;15.50;51.00;;;;;;4975556;28;45435;-71
2023/03/04 01:08:36;;;;;;;8.05;3.50;;;15.50;51.00;;;;;;4986110;28;45529;-70
2023/03/04 01:11:03;;;;;;;6.55;3.05;;;15.50;50.90;;;;;;4983229;28;45621;-70
2023/03/04 01:13:30;;;;;;;5.60;3.35;;;15.50;49.90;;;;;;4975086;28;45512;-70
2023/03/04 01:15:57;;;;;;;7.60;3.53;;;15.40;49.70;;;;;;4974551;28;45427;-71
2023/03/04 01:18:24;;;;;;;6.75;3.42;;;15.40;49.40;;;;;;4970634;28;45423;-70
2023/03/04 01:20:51;;;;;;;6.78;3.42;;;15.40;48.60;;;;;;4982653;28;45462;-70
2023/03/04 01:23:18;;;;;;;5.07;2.60;;;15.40;48.40;;;;;;4967341;28;45427;-71
2023/03/04 01:25:46;;;;;;;6.65;2.88;;;15.40;47.80;;;;;;4972596;28;45276;-70
2023/03/04 01:28:13;;;;;;;9.43;3.53;;;15.40;47.80;;;;;;4965987;28;45544;-70
2023/03/04 01:30:40;;;;;;;6.55;3.08;;;15.40;47.40;;;;;;4974630;28;45595;-70
2023/03/04 01:33:06;;;;;;;6.95;3.17;;;15.40;47.20;;;;;;4974032;28;45442;-70
2023/03/04 01:35:33;;;;;;;5.07;2.50;;;15.40;47.50;;;;;;4985671;28;45409;-70
2023/03/04 01:38:00;;;;;;;5.93;3.10;;;15.40;47.90;;;;;;4990978;28;45448;-70
2023/03/04 01:40:27;;;;;;;5.10;2.70;;;15.50;48.30;;;;;;4981219;28;45479;-70
2023/03/04 01:42:55;;;;;;;6.18;3.13;;;15.50;48.40;;;;;;4966082;28;46603;-71
2023/03/04 01:45:22;;;;;;;4.93;2.50;;;15.50;48.60;;;;;;4977239;28;45345;-70
2023/03/04 01:47:50;;;;;;;6.90;2.95;;;15.50;48.90;;;;;;4988763;28;45315;-71
2023/03/04 01:50:21;;;;;;;5.65;2.50;;;15.50;49.10;;;;;;4982815;28;45199;-70
2023/03/04 01:52:48;;;;;;;5.95;2.70;;;15.50;49.40;;;;;;4988279;28;45411;-70
2023/03/04 01:55:17;;;;;;;5.30;2.47;;;15.50;49.80;;;;;;4971824;28;45282;-70
2023/03/04 01:57:45;;;;;;;5.00;2.47;;;15.50;49.80;;;;;;4988933;28;45356;-70
2023/03/04 02:00:22;;;;;;;4.65;2.30;;;15.50;49.80;;;;;;4985522;28;45560;-69
2023/03/04 02:02:51;;;;;;;6.78;2.70;;;15.40;49.70;;;;;;4982973;28;47259;-70
2023/03/04 02:05:18;;;;;;;4.47;2.25;;;15.40;49.70;;;;;;4986233;28;45427;-70
2023/03/04 02:07:45;;;;;;;5.63;2.15;;;15.50;49.80;;;;;;4967073;28;45429;-71
2023/03/04 02:10:12;;;;;;;5.57;2.40;;;15.50;49.80;;;;;;4977504;28;45264;-70
2023/03/04 02:12:40;;;;;;;7.00;2.60;;;15.50;49.80;;;;;;4990974;28;47214;-70
2023/03/04 02:15:08;;;;;;;7.70;2.00;;;15.50;49.80;;;;;;4972393;28;45392;-70
2023/03/04 02:17:36;;;;;;;4.53;2.10;;;15.50;49.80;;;;;;4980665;28;45398;-70
2023/03/04 02:20:14;;;;;;;5.68;2.17;;;15.50;49.80;;;;;;4980092;28;45460;-70
2023/03/04 02:23:00;;;;;;;3.38;2.00;;;15.50;49.80;;;;;;4998367;28;46451;-70
2023/03/04 02:25:35;;;;;;;5.45;2.00;;;15.60;49.90;;;;;;4974109;28;45413;-71
2023/03/04 02:28:03;;;;;;;5.50;2.15;;;15.60;51.10;;;;;;4983040;28;45443;-70
2023/03/04 02:30:30;;;;;;;3.42;1.63;;;15.60;49.90;;;;;;4983847;28;45490;-70
2023/03/04 02:32:57;;;;;;;6.00;2.15;;;15.60;49.90;;;;;;4992934;28;46212;-70
2023/03/04 02:35:23;;;;;;;4.55;2.05;;;15.60;49.90;;;;;;4998258;28;45355;-70
2023/03/04 02:37:50;;;;;;;5.82;2.10;;;15.60;49.90;;;;;;5004043;28;45419;-72
2023/03/04 02:40:24;;;;;;;4.20;1.77;;;15.60;49.90;;;;;;4983339;28;45359;-70
2023/03/04 02:42:51;;;;;;;5.30;1.83;;;15.60;49.90;;;;;;4984754;28;47746;-70
2023/03/04 02:45:46;;;;;;;4.03;1.75;;;15.60;49.90;;;;;;4980110;28;45633;-70
2023/03/04 02:48:15;;;;;;;4.13;1.83;;;15.60;49.90;;;;;;4934662;28;45316;-70
2023/03/04 02:50:44;;;;;;;5.65;1.48;;;15.60;49.90;;;;;;4989322;28;45481;-70
2023/03/04 02:53:11;;;;;;;4.32;1.63;;;15.50;49.80;;;;;;4991893;28;46331;-70
2023/03/04 02:55:37;;;;;;;3.67;1.45;;;15.60;49.90;;;;;;4990981;28;45299;-70
2023/03/04 02:58:04;;;;;;;5.72;1.45;;;15.60;49.90;;;;;;4993099;28;45390;-70
2023/03/04 03:00:31;;;;;;;3.72;1.38;;;15.50;49.80;;;;;;4984684;28;45431;-70
2023/03/04 03:02:59;;;;;;;4.00;1.83;;;15.60;49.90;;;;;;4983613;28;45599;-70
2023/03/04 03:05:29;;;;;;;5.15;1.73;;;15.50;49.80;;;;;;4983925;28;46694;-70
2023/03/04 03:07:56;;;;;;;5.97;1.80;;;15.50;49.80;;;;;;4975140;28;45351;-70
2023/03/04 03:10:23;;;;;;;4.45;1.40;;;15.50;49.80;;;;;;4976770;28;45455;-70
2023/03/04 03:12:50;;;;;;;4.63;1.48;;;15.50;49.80;;;;;;4983759;28;46604;-70
2023/03/04 03:15:17;;;;;;;4.63;1.80;;;15.50;49.80;;;;;;4980992;28;46178;-70
2023/03/04 03:17:44;;;;;;;3.15;1.42;;;15.60;49.90;;;;;;4995567;28;45376;-70
2023/03/04 03:20:14;;;;;;;2.63;1.20;;;15.60;49.90;;;;;;4976777;28;45523;-70
2023/03/04 03:22:41;;;;;;;4.72;1.40;;;15.60;49.90;;;;;;4984066;28;46319;-71
2023/03/04 03:25:10;;;;;;;4.88;1.45;;;15.70;50.00;;;;;;4986798;28;45674;-70
2023/03/04 03:27:37;;;;;;;3.63;1.27;;;15.70;50.00;;;;;;4994896;28;45345;-69
2023/03/04 03:30:04;;;;;;;3.78;1.58;;;15.70;50.00;;;;;;4984988;28;45643;-70
2023/03/04 03:32:31;;;;;;;2.90;1.30;;;15.70;50.00;;;;;;4984031;28;45668;-70
2023/03/04 03:34:58;;;;;;;4.72;1.30;;;15.70;50.00;;;;;;4991689;28;45479;-70
2023/03/04 03:37:26;;;;;;;4.03;1.15;;;15.60;49.90;;;;;;4989039;28;45466;-70
2023/03/04 03:39:53;;;;;;;3.70;1.25;;;15.60;49.90;;;;;;4993092;28;45565;-70
2023/03/04 03:42:19;;;;;;;3.33;1.05;;;15.60;49.90;;;;;;4973093;28;47571;-70
2023/03/04 03:44:46;;;;;;;4.32;1.33;;;15.60;49.90;;;;;;4975523;28;45312;-70
2023/03/04 03:47:13;;;;;;;4.65;1.50;;;15.60;49.90;;;;;;4974033;28;45356;-70
2023/03/04 03:49:40;;;;;;;4.85;1.40;;;15.60;49.90;;;;;;4980295;28;45328;-70
2023/03/04 03:52:08;;;;;;;6.30;1.20;;;15.60;49.90;;;;;;4991389;28;48207;-70
2023/03/04 03:54:36;;;;;;;5.85;1.50;;;15.60;49.90;;;;;;4975141;28;45396;-70
2023/03/04 03:57:03;;;;;;;4.25;1.33;;;15.60;49.90;;;;;;4976921;28;45251;-70
2023/03/04 03:59:29;;;;;;;2.45;1.10;;;15.60;49.90;;;;;;4986442;28;45646;-70
2023/03/04 04:01:56;;;;;;;4.75;1.27;;;15.60;49.90;;;;;;4983626;28;46413;-70
2023/03/04 04:04:23;;;;;;;4.75;1.23;;;15.60;49.90;;;;;;4980901;28;45452;-70
2023/03/04 04:06:50;;;;;;;6.70;1.42;;;15.50;49.80;;;;;;4977858;28;45304;-70
2023/03/04 04:09:16;;;;;;;4.50;1.00;;;15.60;49.90;;;;;;4991455;28;45398;-70
2023/03/04 04:11:45;;;;;;;3.90;1.08;;;15.60;49.90;;;;;;4983244;28;46522;-69
2023/03/04 04:14:12;;;;;;;4.55;1.48;;;15.60;49.90;;;;;;4972855;28;45382;-70
2023/03/04 04:16:39;;;;;;;5.18;1.17;;;15.60;51.10;;;;;;4979814;28;45408;-70
2023/03/04 04:19:06;;;;;;;4.47;1.38;;;15.60;48.90;;;;;;4993778;28;45354;-70
2023/03/04 04:21:33;;;;;;;4.00;1.10;;;15.60;48.20;;;;;;4981076;28;45388;-70
2023/03/04 04:24:00;;;;;;;2.88;1.05;;;15.60;48.10;;;;;;4991701;28;45384;-71
2023/03/04 04:26:27;;;;;;;4.20;1.17;;;15.50;47.50;;;;;;4997654;28;45290;-70
2023/03/04 04:28:55;;;;;;;4.75;1.48;;;15.60;47.40;;;;;;4986485;28;45365;-70
2023/03/04 04:31:22;;;;;;;4.80;1.63;;;15.50;47.10;;;;;;4985609;28;47193;-70
2023/03/04 04:33:48;;;;;;;2.72;1.20;;;15.50;46.90;;;;;;4975638;28;45471;-70
2023/03/04 04:36:19;;;;;;;6.53;1.25;;;15.50;46.80;;;;;;4995342;28;45400;-70
2023/03/04 04:38:48;;;;;;;5.30;1.27;;;15.50;47.00;;;;;;4986421;28;45455;-72
2023/03/04 04:41:20;;;;;;;5.40;1.30;;;15.50;46.70;;;;;;4981283;28;45484;-70
2023/03/04 04:43:47;;;;;;;5.65;1.60;;;15.50;46.60;;;;;;4986249;28;45395;-70
2023/03/04 04:46:15;;;;;;;4.15;1.20;;;15.50;46.60;;;;;;4980617;28;45419;-70
2023/03/04 04:48:42;;;;;;;4.40;1.23;;;15.50;46.50;;;;;;4975811;28;45310;-71
2023/03/04 04:51:10;;;;;;;6.28;1.20;;;15.40;46.30;;;;;;4978249;28;45506;-70
2023/03/04 04:53:37;;;;;;;5.88;1.30;;;15.40;46.20;;;;;;4981355;28;46118;-70
2023/03/04 04:56:09;;;;;;;4.43;1.17;;;15.50;46.20;;;;;;4986037;28;45374;-70
2023/03/04 04:58:37;;;;;;;5.68;1.30;;;15.40;46.10;;;;;;4988030;28;45249;-70
2023/03/04 05:01:04;;;;;;;3.25;1.08;;;15.40;46.00;;;;;;4974437;28;45446;-70
2023/03/04 05:03:33;;;;;;;3.53;1.13;;;15.40;46.10;;;;;;4976859;28;45418;-71
2023/03/04 05:06:00;;;;;;;3.85;0.82;;;15.50;46.20;;;;;;4980894;28;45629;-70
2023/03/04 05:08:27;;;;;;;2.70;0.95;;;15.50;46.30;;;;;;4979216;28;45436;-70
2023/03/04 05:10:54;;;;;;;3.92;0.85;;;15.50;46.00;;;;;;4976832;28;46562;-70
2023/03/04 05:13:21;;;;;;;2.90;1.05;;;15.50;46.20;;;;;;4977808;28;45528;-70
2023/03/04 05:15:48;;;;;;;2.72;1.30;;;15.50;46.10;;;;;;4987663;28;45323;-71
2023/03/04 05:18:14;;;;;;;3.92;1.10;;;15.50;46.00;;;;;;4986144;28;45313;-71
2023/03/04 05:20:43;;;;;;;4.80;1.38;;;15.50;45.90;;;;;;4979747;28;47770;-70
2023/03/04 05:23:09;;;;;;;3.92;1.15;;;15.50;45.90;;;;;;4982590;28;45232;-70
2023/03/04 05:25:36;;;;;;;5.50;1.30;;;15.50;45.90;;;;;;4984506;28;45350;-70
2023/03/04 05:28:04;;;;;;;5.47;1.10;;;15.50;45.60;;;;;;4981206;28;45280;-70
2023/03/04 05:30:32;;;;;;;3.15;1.08;;;15.50;45.50;;;;;;4982177;28;45541;-70
2023/03/04 05:32:59;;;;;;;6.28;1.13;;;15.50;45.40;;;;;;4982822;28;45594;-70
2023/03/04 05:35:25;;;;;;;2.42;0.90;;;15.40;45.30;;;;;;4982617;28;45485;-70
2023/03/04 05:37:54;;;;;;;5.38;1.40;;;15.40;45.30;;;;;;4974259;28;45557;-70
2023/03/04 05:40:23;;;;;;;4.97;1.17;;;15.40;45.40;;;;;;4980532;28;45521;-71
2023/03/04 05:42:50;;;;;;;7.05;1.30;;;15.40;45.30;;;;;;4985381;28;45351;-70
2023/03/04 05:45:16;;;;;;;3.70;1.05;;;15.50;45.40;;;;;;4986521;28;45356;-70
2023/03/04 05:47:43;;;;;;;4.95;1.20;;;15.40;45.20;;;;;;4978914;28;45427;-70
2023/03/04 05:50:11;;;;;;;4.25;1.30;;;15.40;45.30;;;;;;4974852;28;47069;-69
2023/03/04 05:52:38;;;;;;;3.47;1.05;;;15.40;45.30;;;;;;4985892;28;45390;-70
2023/03/04 05:55:07;;;;;;;4.53;1.08;;;15.40;45.20;;;;;;4984493;28;45225;-72
2023/03/04 05:57:34;;;;;;;2.47;0.88;;;15.40;45.20;;;;;;4988115;28;45462;-70
2023/03/04 06:00:01;;;;;;;5.75;0.85;;;15.40;47.70;;;;;;4974225;28;46574;-71
2023/03/04 06:02:28;;;;;;;3.88;0.88;;;15.50;48.20;;;;;;4983159;28;45248;-71
2023/03/04 06:04:55;;;;;;;2.83;1.15;;;15.50;47.40;;;;;;4983121;28;45454;-70
2023/03/04 06:07:22;;;;;;;5.75;1.20;;;15.50;46.80;;;;;;4996008;28;45192;-71
2023/03/04 06:09:49;;;;;;;3.95;1.23;;;15.50;47.60;;;;;;4985249;28;47915;-71
2023/03/04 06:12:17;;;;;;;2.85;1.02;;;15.50;46.20;;;;;;4986957;28;45327;-71
2023/03/04 06:14:43;;;;;;;5.38;1.30;;;15.50;46.00;;;;;;4977778;28;45359;-71
2023/03/04 06:17:10;;;;;;;3.05;0.95;;;15.50;45.70;;;;;;4982508;28;45331;-71
2023/03/04 06:19:37;;;;;;;2.38;0.70;;;15.50;45.70;;;;;;4982998;28;45347;-71
2023/03/04 06:22:04;;;;;;;3.20;0.90;;;15.50;45.80;;;;;;4983107;28;45313;-71
2023/03/04 06:24:31;;;;;;;6.28;1.00;;;15.50;45.70;;;;;;4983523;28;45323;-71
2023/03/04 06:26:58;;;;;;;4.85;1.02;;;15.40;45.90;;;;;;4983318;28;45289;-71
2023/03/04 06:29:26;;;;;;;4.55;1.02;;;15.40;45.80;;;;;;4982412;28;46471;-71
2023/03/04 06:31:53;;;;;;;3.35;0.90;;;15.40;45.80;;;;;;4974216;28;45913;-71
2023/03/04 06:34:20;;;;;;;4.57;1.08;;;15.40;45.90;;;;;;4982666;28;45392;-71
2023/03/04 06:36:47;;;;;;;3.60;1.00;;;15.40;45.90;;;;;;4997788;28;45448;-71
2023/03/04 06:39:14;;;;;;;2.88;0.95;;;15.30;45.70;;;;;;4982434;28;47521;-71
2023/03/04 06:41:41;;;;;;;3.60;0.85;;;15.30;45.60;;;;;;4985627;28;45269;-71
2023/03/04 06:44:08;;;;;;;3.63;0.75;;;15.30;45.60;;;;;;4986015;28;45507;-72
2023/03/04 06:46:36;;;;;;;4.22;0.82;;;15.30;45.50;;;;;;4991010;28;45474;-71
2023/03/04 06:49:03;;;;;;;2.63;1.02;;;15.30;45.50;;;;;;4997356;28;47572;-71
2023/03/04 06:51:30;;;;;;;4.05;1.20;;;15.40;45.70;;;;;;5000854;28;45315;-72
2023/03/04 06:53:57;;;;;;;3.67;1.00;;;15.40;45.60;;;;;;4997424;28;45244;-71
2023/03/04 06:56:23;;;;;;;2.28;0.85;;;15.40;45.50;;;;;;4997099;28;45419;-71
2023/03/04 06:58:50;;;;;;;3.35;0.88;;;15.40;45.60;;;;;;4993559;28;46598;-72
2023/03/04 07:01:19;;;;;;;2.65;0.80;;;15.40;45.50;;;;;;4989387;28;45422;-72
2023/03/04 07:03:48;;;;;;;2.35;0.70;;;15.40;45.50;;;;;;4989538;28;45382;-73
2023/03/04 07:06:18;;;;;;;4.60;1.10;;;15.40;45.30;;;;;;4974660;28;45371;-71
2023/03/04 07:08:45;;;;;;;3.92;1.20;;;15.50;45.30;;;;;;4984789;28;45327;-72
2023/03/04 07:11:13;;;;;;;3.58;1.27;;;15.50;45.10;;;;;;4985952;28;45351;-71
2023/03/04 07:13:40;;;;;;;3.42;0.90;;;15.50;45.10;;;;;;4986085;28;45321;-71
2023/03/04 07:16:09;;;;;;;5.28;1.40;;;15.50;45.10;;;;;;4996066;28;45439;-71
2023/03/04 07:18:37;;;;;;;3.75;1.17;;;15.50;45.20;;;;;;4984194;28;46589;-71
2023/03/04 07:21:06;;;;;;;3.13;0.85;;;15.50;45.10;;;;;;4992520;28;45327;-71
2023/03/04 07:23:34;;;;;;;3.50;0.80;;;15.40;45.10;;;;;;4986595;28;45295;-71
2023/03/04 07:26:01;;;;;;;5.82;1.05;;;15.50;45.20;;;;;;4978429;28;45520;-72
2023/03/04 07:28:27;;;;;;;5.47;0.95;;;15.50;45.50;;;;;;4984789;28;46558;-71
2023/03/04 07:30:54;;;;;;;1.90;0.90;;;15.40;45.50;;;;;;4986805;28;45365;-72
2023/03/04 07:33:21;;;;;;;5.82;0.93;;;15.50;45.60;;;;;;4989223;28;46071;-71
2023/03/04 07:35:48;;;;;;;4.32;0.90;;;15.40;45.50;;;;;;4990534;28;45386;-72
2023/03/04 07:38:16;;;;;;;1.58;0.77;;;15.40;45.50;;;;;;4997378;28;45598;-71
2023/03/04 07:40:43;;;;;;;4.43;1.08;;;15.40;45.50;;;;;;4981553;28;45348;-71
2023/03/04 07:43:12;;;;;;;3.30;0.98;;;15.40;45.60;;;;;;4975806;28;45217;-71
2023/03/04 07:45:39;;;;;;;8.38;1.25;;;15.40;45.80;;;;;;4974125;28;45437;-72
2023/03/04 07:48:06;;;;;;;4.28;1.10;;;15.40;45.70;;;;;;4984641;28;45263;-71
2023/03/04 07:50:33;;;;;;;3.97;0.80;;;15.40;45.70;;;;;;4981431;28;45323;-71
2023/03/04 07:52:59;;;;;;;3.85;1.00;;;15.40;45.70;;;;;;4984825;28;45364;-71
2023/03/04 07:55:29;;;;;;;6.25;1.23;;;15.40;45.60;;;;;;4981605;28;45640;-71
2023/03/04 07:57:56;;;;;;;2.10;0.60;;;15.40;45.50;;;;;;4976776;28;47859;-70
2023/03/04 08:00:23;;;;;;;3.33;0.77;;;15.50;45.60;;;;;;4993543;28;45442;-71
2023/03/04 08:02:50;;;;;;;6.47;1.27;;;15.50;45.90;;;;;;4995601;28;45300;-71
2023/03/04 08:05:17;;;;;;;1.15;0.60;;;15.50;46.00;;;;;;4982438;28;45367;-70
2023/03/04 08:07:44;;;;;;;4.50;1.10;;;15.50;46.10;;;;;;4981651;28;47503;-71
2023/03/04 08:10:11;;;;;;;2.10;0.60;;;15.50;46.50;;;;;;4976688;28;45776;-71
2023/03/04 08:12:39;;;;;;;3.78;0.70;;;15.50;46.60;;;;;;4992038;28;45272;-71
2023/03/04 08:15:07;;;;;;;3.15;0.75;;;15.50;46.70;;;;;;4976975;28;45607;-71
2023/03/04 08:17:35;;;;;;;3.70;0.93;;;15.50;46.80;;;;;;4986825;28;48312;-71
2023/03/04 08:20:01;;;;;;;4.25;1.08;;;15.50;47.00;;;;;;4981559;28;45362;-71
2023/03/04 08:22:28;;;;;;;2.67;0.85;;;15.50;47.30;;;;;;4984286;28;45339;-71
2023/03/04 08:24:55;;;;;;;2.80;0.68;;;15.40;47.40;;;;;;4993342;28;45379;-71
2023/03/04 08:27:22;;;;;;;4.07;0.73;;;15.50;47.60;;;;;;4997689;28;46305;-71
2023/03/04 08:29:51;;;;;;;3.40;0.80;;;15.50;47.70;;;;;;4995942;28;45311;-71
2023/03/04 08:32:17;;;;;;;2.63;0.73;;;15.50;47.60;;;;;;4987820;28;45394;-71
2023/03/04 08:34:44;;;;;;;2.28;0.63;;;15.40;47.60;;;;;;5003398;28;45545;-72
2023/03/04 08:37:11;;;;;;;5.20;0.77;;;15.40;47.90;;;;;;5000271;28;47499;-71
2023/03/04 08:39:38;;;;;;;4.75;0.82;;;15.40;47.80;;;;;;4979113;28;45503;-71
2023/03/04 08:42:05;;;;;;;3.97;0.80;;;15.40;48.10;;;;;;4970679;28;45372;-71
2023/03/04 08:44:31;;;;;;;2.40;0.85;;;15.40;48.10;;;;;;5000889;28;45379;-71
2023/03/04 08:46:59;;;;;;;1.38;0.60;;;15.50;48.10;;;;;;4976634;28;47505;-71
2023/03/04 08:49:26;;;;;;;2.90;0.70;;;15.50;48.10;;;;;;4990532;28;45208;-71
2023/03/04 08:51:53;;;;;;;2.53;0.90;;;15.40;48.10;;;;;;4984189;28;45419;-71
2023/03/04 08:54:20;;;;;;;3.45;0.88;;;15.40;48.30;;;;;;4983959;28;45409;-71
2023/03/04 08:56:47;;;;;;;1.23;0.60;;;15.50;48.40;;;;;;4983347;28;46836;-73
2023/03/04 08:59:13;;;;;;;2.33;0.80;;;15.50;48.40;;;;;;4991947;28;45279;-71
2023/03/04 09:01:40;;;;;;;2.17;0.60;;;15.50;48.20;;;;;;4977366;28;45356;-71
2023/03/04 09:04:08;;;;;;;3.92;0.57;;;15.50;48.20;;;;;;4990757;28;45360;-71
2023/03/04 09:06:35;;;;;;;1.98;0.57;;;15.50;48.20;;;;;;4973124;28;46188;-71
2023/03/04 09:09:03;;;;;;;2.83;0.82;;;15.50;48.40;;;;;;4973116;28;45308;-71
2023/03/04 09:11:30;;;;;;;3.13;0.80;;;15.50;48.50;;;;;;4983595;28;45531;-71
2023/03/04 09:13:57;;;;;;;2.63;0.60;;;15.50;48.60;;;;;;4983827;28;45337;-71
2023/03/04 09:16:24;;;;;;;3.88;0.70;;;15.50;48.70;;;;;;4983354;28;45489;-71
2023/03/04 09:18:51;;;;;;;3.15;0.75;;;15.50;48.80;;;;;;4989865;28;45269;-72
2023/03/04 09:21:19;;;;;;;3.05;0.68;;;15.50;48.90;;;;;;4985329;28;45242;-70
2023/03/04 09:23:46;;;;;;;2.17;0.60;;;15.50;48.90;;;;;;4999048;28;45665;-70
2023/03/04 09:26:15;;;;;;;1.70;0.47;;;15.50;49.10;;;;;;4975419;28;45540;-71
2023/03/04 09:28:42;;;;;;;1.92;0.50;;;15.50;49.50;;;;;;4976775;28;45611;-70
2023/03/04 09:31:13;;;;;;;1.33;0.60;;;15.50;49.40;;;;;;5001985;28;45444;-71
2023/03/04 09:33:41;;;;;;;1.35;0.52;;;15.50;49.80;;;;;;4994678;28;45431;-70
2023/03/04 09:36:09;;;;;;;1.23;0.63;;;15.50;49.80;;;;;;4978826;28;45268;-71
2023/03/04 09:38:38;;;;;;;1.65;0.60;;;15.50;49.80;;;;;;5002212;28;45405;-71
2023/03/04 09:41:08;;;;;;;2.38;0.60;;;15.50;49.80;;;;;;4999169;28;45336;-71
2023/03/04 09:43:37;;;;;;;1.63;0.70;;;15.50;49.80;;;;;;4987545;28;45483;-71
2023/03/04 09:46:08;;;;;;;2.00;0.77;;;15.50;49.80;;;;;;4985286;28;46428;-70
2023/03/04 09:48:43;;;;;;;3.20;0.68;;;15.50;49.80;;;;;;4995260;28;45305;-71
2023/03/04 09:51:21;;;;;;;3.08;0.80;;;15.50;49.80;;;;;;4995469;28;45391;-70
2023/03/04 09:54:01;;;;;;;1.83;0.57;;;15.60;49.70;;;;;;4979183;28;45473;-71
2023/03/04 09:56:29;;;;;;;1.83;0.55;;;15.60;49.50;;;;;;4993929;28;46514;-71
2023/03/04 09:59:03;;;;;;;3.15;0.88;;;15.60;49.80;;;;;;4991981;28;45207;-70
2023/03/04 10:01:36;;;;;;;2.17;0.70;;;15.60;49.70;;;;;;4996139;28;45329;-71
2023/03/04 10:04:08;;;;;;;2.13;0.80;;;15.60;49.90;;;;;;4985930;28;45312;-71
2023/03/04 10:06:37;;;;;;;3.17;0.63;;;15.60;51.10;;;;;;4974500;28;45528;-71
2023/03/04 10:09:13;;;;;;;1.15;0.45;;;15.60;49.90;;;;;;4985175;28;45240;-70
2023/03/04 10:11:44;;;;;;;1.65;0.70;;;15.60;49.90;;;;;;4986002;28;45373;-70
2023/03/04 10:14:37;;;;;;;2.60;0.70;;;15.60;49.90;;;;;;4977860;28;45332;-71
2023/03/04 10:17:12;;;;;;;1.27;0.50;;;15.50;49.80;;;;;;4993093;28;46559;-71
2023/03/04 10:19:55;;;;;;;2.78;0.55;;;15.50;49.80;;;;;;4981555;28;45456;-72
2023/03/04 10:22:28;;;;;;;3.88;0.80;;;15.60;49.90;;;;;;4986962;28;45296;-72
2023/03/04 10:24:58;;;;;;;5.07;0.77;;;15.60;49.90;;;;;;4987616;28;45587;-71
2023/03/04 10:27:28;;;;;;;2.55;0.60;;;15.70;50.00;;;;;;4986156;28;48540;-71
2023/03/04 10:29:57;;;;;;;2.28;0.68;;;15.60;49.90;;;;;;4978490;28;45375;-72
2023/03/04 10:32:24;;;;;;;3.05;0.73;;;15.60;49.90;;;;;;4991767;28;45442;-71
2023/03/04 10:34:51;;;;;;;1.75;0.60;;;15.60;49.90;;;;;;4979933;28;45539;-71
2023/03/04 10:37:18;;;;;;;3.92;0.55;;;15.60;50.10;;;;;;4984394;28;47538;-71
2023/03/04 10:39:48;;;;;;;1.83;0.52;;;15.60;49.90;;;;;;4991038;28;45368;-70
2023/03/04 10:42:35;;;;;;;1.85;0.50;;;15.60;49.90;;;;;;4981450;28;45342;-70
2023/03/04 10:45:03;;;;;;;3.20;0.50;;;15.60;50.20;;;;;;4978279;28;45259;-71
2023/03/04 10:47:33;;;;;;;1.00;0.57;;;15.60;49.90;;;;;;4990348;28;45844;-70
2023/03/04 10:50:02;;;;;;;2.20;0.60;;;15.60;49.90;;;;;;4991127;28;45451;-70
2023/03/04 10:52:31;;;;;;;3.10;0.70;;;15.60;49.90;;;;;;4977069;28;45434;-70
2023/03/04 10:55:00;;;;;;;2.67;0.63;;;15.60;49.70;;;;;;4984637;28;45245;-71
2023/03/04 10:57:35;;;;;;;1.55;0.60;;;15.50;49.30;;;;;;4991223;28;46083;-71
2023/03/04 11:00:22;;;;;;;2.00;0.60;;;15.50;50.40;;;;;;4990480;28;45368;-71
2023/03/04 11:02:49;;;;;;;1.02;0.50;;;15.50;49.00;;;;;;4990800;28;45601;-71
2023/03/04 11:05:20;;;;;;;1.50;0.40;;;15.50;48.80;;;;;;4994755;28;45243;-69
2023/03/04 11:07:50;;;;;;;2.88;0.38;;;15.50;48.70;;;;;;4975467;28;46705;-71
2023/03/04 11:10:19;;;;;;;2.53;0.50;;;15.50;48.70;;;;;;4981037;28;45340;-71
2023/03/04 11:12:53;;;;;;;1.73;0.73;;;15.50;48.50;;;;;;4983683;28;45446;-72
2023/03/04 11:15:26;;;;;;;1.52;0.73;;;15.40;48.50;;;;;;4972729;28;45464;-71
2023/03/04 11:17:55;;;;;;;2.85;0.63;;;15.40;48.20;;;;;;4981466;28;48795;-72
2023/03/04 11:20:30;;;;;;;1.45;0.52;;;15.40;48.50;;;;;;4986741;28;45352;-72
2023/03/04 11:23:03;;;;;;;1.45;0.30;;;15.40;49.70;;;;;;4992945;28;45343;-71
2023/03/04 11:25:33;;;;;;;0.85;0.40;;;15.30;50.00;;;;;;4997261;28;45378;-72
2023/03/04 11:28:05;;;;;;;1.90;0.50;;;15.40;50.70;;;;;;4993169;28;48393;-72
2023/03/04 11:30:39;;;;;;;1.85;0.50;;;15.40;51.20;;;;;;4985941;28;45256;-72
2023/03/04 11:33:15;;;;;;;1.08;0.43;;;15.40;51.50;;;;;;4979960;28;45398;-71
2023/03/04 11:35:58;;;;;;;0.70;0.30;;;15.50;51.80;;;;;;4979035;28;45455;-72
2023/03/04 11:38:31;;;;;;;0.77;0.43;;;15.50;51.70;;;;;;4979864;28;46892;-72
2023/03/04 11:41:02;;;;;;;1.50;0.50;;;15.50;51.90;;;;;;4986156;28;45422;-72
2023/03/04 11:43:35;;;;;;;0.85;0.40;;;15.50;51.90;;;;;;4984458;28;45181;-72
2023/03/04 11:46:25;;;;;;;1.35;0.50;;;15.60;52.20;;;;;;4995167;28;45280;-72
2023/03/04 11:48:57;;;;;;;0.55;0.30;;;15.60;52.00;;;;;;4947745;28;45732;-72
2023/03/04 11:51:30;;;;;;;0.35;0.30;;;15.60;52.10;;;;;;4991879;28;45300;-72
2023/03/04 11:54:17;;;;;;;1.27;0.25;;;15.60;51.80;;;;;;4985167;28;45516;-72
2023/03/04 11:56:47;;;;;;;1.25;0.38;;;15.70;52.10;;;;;;5003244;28;45586;-72
2023/03/04 11:59:39;;;;;;;0.47;0.20;;;15.70;51.90;;;;;;4986240;28;45448;-72
2023/03/04 12:02:17;;;;;;;1.20;0.63;;;15.60;52.00;;;;;;4997549;28;45291;-73
2023/03/04 12:05:20;;;;;;;0.65;0.30;;;15.60;52.00;;;;;;4991785;28;45632;-72
2023/03/04 12:08:08;;;;;;;1.63;0.40;;;15.60;52.50;;;;;;4980576;28;45666;-73
2023/03/04 12:10:42;;;;;;;0.60;0.40;;;15.60;52.60;;;;;;4981854;28;45706;-73
2023/03/04 12:13:48;;;;;;;0.35;0.20;;;15.50;52.80;;;;;;4995696;28;45442;-73
2023/03/04 12:16:29;;;;;;;0.47;0.25;;;15.60;52.50;;;;;;4978845;28;45265;-72
2023/03/04 12:19:09;;;;;;;1.17;0.28;;;15.60;52.90;;;;;;4994276;28;45410;-73
2023/03/04 12:21:59;;;;;;;0.32;0.20;;;15.60;53.10;;;;;;4986541;28;45430;-72
2023/03/04 12:24:48;;;;;;;0.95;0.32;;;15.60;52.90;;;;;;4999622;28;45423;-72
2023/03/04 12:27:24;;;;;;;1.60;0.50;;;15.60;52.90;;;;;;4970691;28;45241;-72
2023/03/04 12:29:58;;;;;;;0.40;0.20;;;15.60;52.70;;;;;;4989478;28;45305;-72
2023/03/04 12:32:34;;;;;;;1.20;0.40;;;15.60;52.50;;;;;;4986883;28;47275;-72
2023/03/04 12:35:18;;;;;;;1.70;0.50;;;15.70;52.10;;;;;;4993968;28;45391;-72
2023/03/04 12:38:00;;;;;;;1.35;0.40;;;15.70;52.30;;;;;;4986037;28;45352;-72
2023/03/04 12:40:36;;;;;;;0.75;0.20;;;15.70;51.80;;;;;;4979004;28;45447;-73
2023/03/04 12:43:43;;;;;;;1.55;0.28;;;15.70;51.70;;;;;;4985596;28;45480;-72
2023/03/04 12:46:20;;;;;;;1.42;0.40;;;15.70;51.60;;;;;;4948435;28;45532;-72
2023/03/04 12:48:59;;;;;;;0.43;0.30;;;15.70;51.70;;;;;;4994175;28;45391;-72
2023/03/04 12:51:32;;;;;;;0.17;0.17;;;15.80;52.00;;;;;;5000409;28;45415;-73
2023/03/04 12:54:20;;;;;;;1.13;0.35;;;15.80;52.30;;;;;;4987468;28;45435;-72
2023/03/04 12:56:53;;;;;;;0.85;0.28;;;15.70;52.30;;;;;;4989081;28;46169;-72
2023/03/04 12:59:23;;;;;;;0.55;0.20;;;15.70;52.30;;;;;;4985956;28;45360;-72